createdAt,value
2019-04-11T00:01:45.166Z,2.70
2019-04-11T00:04:10.140Z,2.70
2019-04-11T00:06:39.621Z,2.70
2019-04-11T00:09:12.712Z,2.70
2019-04-11T00:11:42.251Z,2.70
2019-04-11T00:14:13.805Z,2.70
2019-04-11T00:16:43.574Z,2.70
2019-04-11T00:19:13.686Z,2.80
2019-04-11T00:21:43.307Z,2.80
2019-04-11T00:24:12.869Z,2.80
2019-04-11T00:26:42.415Z,2.80
2019-04-11T00:29:12.211Z,2.90
2019-04-11T00:31:41.825Z,2.90
2019-04-11T00:34:11.404Z,3.00
2019-04-11T00:36:40.878Z,3.00
2019-04-11T00:39:13.200Z,3.10
2019-04-11T00:41:42.951Z,3.10
2019-04-11T00:44:12.646Z,3.00
2019-04-11T00:46:42.597Z,3.10
2019-04-11T00:49:12.388Z,3.00
2019-04-11T00:51:42.311Z,3.00
2019-04-11T00:54:11.841Z,3.00
2019-04-11T00:56:42.274Z,3.10
2019-04-11T00:59:12.009Z,3.10
2019-04-11T01:01:41.531Z,3.10
2019-04-11T01:04:11.689Z,3.00
2019-04-11T01:06:42.558Z,3.10
2019-04-11T01:09:12.526Z,3.10
2019-04-11T01:11:42.217Z,3.10
2019-04-11T01:14:11.811Z,3.10
2019-04-11T01:16:50.655Z,3.20
2019-04-11T01:19:20.517Z,3.20
2019-04-11T01:21:50.918Z,3.20
2019-04-11T01:24:21.720Z,3.20
2019-04-11T01:26:51.766Z,3.20
2019-04-11T01:29:21.381Z,3.30
2019-04-11T01:31:55.408Z,3.30
2019-04-11T01:34:24.859Z,3.30
2019-04-11T01:36:55.407Z,3.30
2019-04-11T01:39:43.401Z,3.30
2019-04-11T01:42:16.147Z,3.40
2019-04-11T01:44:46.039Z,3.40
2019-04-11T01:47:18.413Z,3.40
2019-04-11T01:49:48.235Z,3.40
2019-04-11T01:52:18.207Z,3.40
2019-04-11T01:54:47.993Z,3.50
2019-04-11T01:57:18.011Z,3.50
2019-04-11T01:59:47.907Z,3.50
2019-04-11T02:02:24.760Z,3.50
2019-04-11T02:04:58.859Z,3.50
2019-04-11T02:07:28.902Z,3.40
2019-04-11T02:09:58.300Z,3.40
2019-04-11T02:12:28.954Z,3.40
2019-04-11T02:14:59.693Z,3.40
2019-04-11T02:17:29.246Z,3.40
2019-04-11T02:19:58.757Z,3.30
2019-04-11T02:22:43.355Z,3.30
2019-04-11T02:25:32.343Z,3.30
2019-04-11T02:28:04.405Z,3.30
2019-04-11T02:30:36.304Z,3.20
2019-04-11T02:33:07.701Z,3.20
2019-04-11T02:35:39.917Z,3.20
2019-04-11T02:38:10.193Z,3.20
2019-04-11T02:40:41.155Z,3.20
2019-04-11T02:43:12.772Z,3.20
2019-04-11T02:45:52.618Z,3.20
2019-04-11T02:48:14.044Z,3.20
2019-04-11T02:50:45.708Z,3.20
2019-04-11T02:53:16.980Z,3.20
2019-04-11T02:55:47.478Z,3.10
2019-04-11T02:58:18.628Z,3.10
2019-04-11T03:00:50.265Z,3.00
2019-04-11T03:03:20.871Z,3.00
2019-04-11T03:05:50.907Z,3.00
2019-04-11T03:08:22.091Z,3.00
2019-04-11T03:10:53.314Z,3.00
2019-04-11T03:13:23.308Z,3.00
2019-04-11T03:16:07.144Z,3.00
2019-04-11T03:18:46.039Z,3.00
2019-04-11T03:21:02.873Z,2.90
2019-04-11T03:23:28.033Z,2.90
2019-04-11T03:25:58.302Z,2.80
2019-04-11T03:28:30.801Z,2.70
2019-04-11T03:31:37.274Z,2.70
2019-04-11T03:38:55.139Z,2.50
2019-04-11T03:41:23.634Z,2.50
2019-04-11T03:43:48.608Z,2.40
2019-04-11T03:46:26.945Z,2.30
2019-04-11T03:48:54.799Z,2.30
2019-04-11T03:51:14.577Z,2.20
2019-04-11T03:53:44.985Z,2.20
2019-04-11T03:56:16.262Z,2.20
2019-04-11T03:58:48.113Z,2.20
2019-04-11T04:01:22.161Z,2.10
2019-04-11T04:03:54.036Z,2.10
2019-04-11T04:06:23.869Z,2.10
2019-04-11T04:08:58.478Z,2.00
2019-04-11T04:11:30.470Z,1.90
2019-04-11T04:14:12.497Z,1.90
2019-04-11T04:17:01.620Z,1.90
2019-04-11T04:19:32.862Z,1.80
2019-04-11T04:22:07.898Z,1.80
2019-04-11T04:24:40.369Z,1.80
2019-04-11T04:27:13.224Z,1.70
2019-04-11T04:29:46.779Z,1.70
2019-04-11T04:32:14.319Z,1.70
2019-04-11T04:34:44.348Z,1.70
2019-04-11T04:37:16.193Z,1.60
2019-04-11T04:39:47.838Z,1.70
2019-04-11T04:42:26.349Z,1.70
2019-04-11T04:44:50.973Z,1.70
2019-04-11T04:47:25.061Z,1.70
2019-04-11T04:49:52.367Z,1.70
2019-04-11T04:52:22.310Z,1.80
2019-04-11T04:54:52.825Z,1.80
2019-04-11T04:57:24.311Z,1.80
2019-04-11T04:59:55.383Z,1.80
2019-04-11T05:02:26.098Z,1.80
2019-04-11T05:04:56.592Z,1.80
2019-04-11T05:07:29.283Z,1.80
2019-04-11T05:09:58.660Z,1.90
2019-04-11T05:12:28.219Z,1.90
2019-04-11T05:14:59.314Z,2.00
2019-04-11T05:17:29.082Z,2.00
2019-04-11T05:19:59.567Z,2.10
2019-04-11T05:22:28.998Z,2.10
2019-04-11T05:25:01.315Z,2.20
2019-04-11T05:27:33.487Z,2.20
2019-04-11T05:30:03.302Z,2.30
2019-04-11T05:32:33.462Z,2.30
2019-04-11T05:35:03.023Z,2.40
2019-04-11T05:37:33.326Z,2.30
2019-04-11T05:40:03.167Z,2.40
2019-04-11T05:42:33.408Z,2.50
2019-04-11T05:45:05.303Z,2.70
2019-04-11T05:47:35.248Z,3.80
2019-04-11T05:50:17.984Z,4.40
2019-04-11T05:52:48.249Z,5.10
2019-04-11T05:55:17.778Z,5.60
2019-04-11T05:57:52.299Z,6.00
2019-04-11T06:00:23.528Z,5.80
2019-04-11T06:03:01.621Z,6.10
2019-04-11T06:05:50.120Z,6.50
2019-04-11T06:08:24.127Z,6.90
2019-04-11T06:10:56.680Z,7.40
2019-04-11T06:13:28.716Z,8.10
2019-04-11T06:16:02.650Z,8.50
2019-04-11T06:18:37.779Z,8.70
2019-04-11T06:21:20.019Z,9.50
2019-04-11T06:24:08.200Z,10.40
2019-04-11T06:26:45.445Z,11.20
2019-04-11T06:29:22.907Z,11.30
2019-04-11T06:31:55.118Z,11.10
2019-04-11T06:34:26.935Z,10.70
2019-04-11T06:37:01.389Z,9.70
2019-04-11T06:39:41.297Z,9.10
2019-04-11T06:42:12.909Z,8.60
2019-04-11T06:44:44.099Z,8.00
2019-04-11T06:47:32.680Z,7.50
2019-04-11T06:50:25.016Z,6.90
2019-04-11T06:52:54.586Z,6.40
2019-04-11T06:55:32.877Z,6.20
2019-04-11T06:58:05.182Z,6.00
2019-04-11T07:00:35.033Z,5.80
2019-04-11T07:03:17.476Z,5.80
2019-04-11T07:05:38.721Z,5.50
2019-04-11T07:08:09.626Z,5.40
2019-04-11T07:10:44.639Z,5.40
2019-04-11T07:13:30.999Z,5.50
2019-04-11T07:16:00.503Z,5.40
2019-04-11T07:18:35.702Z,5.50
2019-04-11T07:21:10.887Z,5.60
2019-04-11T07:23:59.650Z,5.50
2019-04-11T07:26:39.525Z,5.60
2019-04-11T07:29:15.184Z,5.70
2019-04-11T07:32:02.795Z,5.70
2019-04-11T07:34:49.898Z,6.00
2019-04-11T07:37:21.360Z,6.10
2019-04-11T07:40:09.497Z,5.80
2019-04-11T07:42:52.102Z,5.80
2019-04-11T07:45:28.247Z,5.80
2019-04-11T07:48:00.361Z,5.80
2019-04-11T07:50:31.178Z,6.00
2019-04-11T07:53:03.130Z,6.30
2019-04-11T07:55:34.379Z,6.60
2019-04-11T07:58:21.946Z,7.00
2019-04-11T08:01:10.285Z,7.30
2019-04-11T08:03:57.988Z,7.50
2019-04-11T08:06:45.689Z,7.70
2019-04-11T08:09:17.666Z,7.70
2019-04-11T08:11:54.587Z,7.40
2019-04-11T08:14:26.596Z,7.70
2019-04-11T08:17:03.805Z,7.80
2019-04-11T08:19:51.488Z,8.00
2019-04-11T08:22:23.144Z,8.00
2019-04-11T08:25:13.981Z,7.80
2019-04-11T08:27:54.948Z,8.00
2019-04-11T08:30:16.977Z,8.00
2019-04-11T08:32:54.047Z,8.10
2019-04-11T08:35:28.326Z,8.10
2019-04-11T08:38:02.842Z,8.30
2019-04-11T08:40:47.085Z,8.30
2019-04-11T08:43:28.795Z,7.80
2019-04-11T08:46:09.448Z,7.20
2019-04-11T08:48:46.297Z,7.20
2019-04-11T08:51:17.379Z,7.10
2019-04-11T08:53:49.003Z,6.90
2019-04-11T08:56:23.105Z,6.90
2019-04-11T08:59:33.439Z,7.00
2019-04-11T09:02:04.307Z,7.00
2019-04-11T09:04:36.869Z,7.00
2019-04-11T09:07:07.351Z,7.10
2019-04-11T09:09:55.801Z,6.60
2019-04-11T09:12:26.410Z,6.30
2019-04-11T09:15:16.906Z,6.10
2019-04-11T09:17:56.565Z,6.00
2019-04-11T09:20:42.039Z,6.10
2019-04-11T09:23:11.630Z,6.30
2019-04-11T09:26:01.541Z,6.70
2019-04-11T09:28:35.694Z,7.30
2019-04-11T09:31:23.662Z,7.60
2019-04-11T09:34:11.208Z,7.80
2019-04-11T09:36:45.389Z,8.00
2019-04-11T09:39:23.249Z,8.00
2019-04-11T09:41:54.560Z,7.80
2019-04-11T09:44:41.895Z,7.70
2019-04-11T09:47:16.107Z,7.60
2019-04-11T09:49:47.379Z,7.50
2019-04-11T09:52:18.569Z,7.50
2019-04-11T09:54:50.727Z,7.60
2019-04-11T09:57:22.838Z,7.70
2019-04-11T10:00:03.837Z,7.80
2019-04-11T10:02:54.503Z,7.70
2019-04-11T10:05:32.032Z,7.70
2019-04-11T10:08:03.143Z,7.80
2019-04-11T10:10:51.152Z,7.80
2019-04-11T10:13:25.046Z,7.90
2019-04-11T10:16:12.534Z,7.70
2019-04-11T10:18:53.636Z,7.80
2019-04-11T10:21:25.913Z,7.90
2019-04-11T10:24:16.112Z,8.20
2019-04-11T10:26:45.164Z,8.20
2019-04-11T10:29:33.361Z,8.30
2019-04-11T10:32:03.527Z,8.10
2019-04-11T10:34:37.833Z,8.00
2019-04-11T10:37:09.695Z,7.90
2019-04-11T10:39:43.889Z,7.80
2019-04-11T10:42:14.996Z,7.70
2019-04-11T10:45:02.788Z,7.60
2019-04-11T10:47:35.096Z,7.80
2019-04-11T10:50:25.519Z,8.00
2019-04-11T10:52:56.687Z,8.00
2019-04-11T10:55:30.824Z,7.80
2019-04-11T10:58:04.643Z,7.70
2019-04-11T11:00:39.721Z,7.80
2019-04-11T11:03:11.708Z,7.80
2019-04-11T11:05:42.997Z,8.10
2019-04-11T11:08:31.142Z,8.20
2019-04-11T11:11:13.109Z,8.00
2019-04-11T11:14:00.408Z,8.20
2019-04-11T11:16:40.354Z,8.20
2019-04-11T11:19:39.094Z,8.10
2019-04-11T11:21:43.006Z,7.90
2019-04-11T11:24:14.082Z,7.90
2019-04-11T11:26:43.535Z,8.10
2019-04-11T11:29:20.979Z,8.10
2019-04-11T11:32:01.439Z,7.90
2019-04-11T11:34:36.644Z,7.90
2019-04-11T11:37:24.938Z,8.00
2019-04-11T11:40:00.310Z,8.60
2019-04-11T11:42:36.500Z,8.90
2019-04-11T11:45:17.361Z,9.20
2019-04-11T11:47:49.024Z,9.30
2019-04-11T11:50:22.144Z,9.30
2019-04-11T11:53:08.212Z,9.10
2019-04-11T11:55:41.257Z,9.10
2019-04-11T11:58:28.526Z,8.80
2019-04-11T12:01:03.628Z,8.70
2019-04-11T12:03:33.073Z,8.50
2019-04-11T12:06:07.334Z,8.50
2019-04-11T12:08:47.443Z,8.70
2019-04-11T12:11:17.709Z,8.70
2019-04-11T12:14:04.271Z,8.80
2019-04-11T12:16:36.958Z,9.00
2019-04-11T12:19:08.818Z,9.00
2019-04-11T12:21:38.864Z,9.10
2019-04-11T12:24:26.318Z,9.40
2019-04-11T12:27:00.383Z,9.60
2019-04-11T12:29:32.277Z,9.80
2019-04-11T12:32:04.075Z,9.70
2019-04-11T12:34:45.165Z,9.50
2019-04-11T12:37:17.640Z,9.60
2019-04-11T12:39:51.839Z,9.30
2019-04-11T12:42:22.933Z,9.30
2019-04-11T12:45:12.366Z,9.50
2019-04-11T12:47:43.226Z,9.60
2019-04-11T12:50:18.645Z,9.70
2019-04-11T12:52:58.567Z,9.60
2019-04-11T12:55:35.745Z,9.60
2019-04-11T12:58:06.906Z,9.20
2019-04-11T13:00:54.694Z,8.90
2019-04-11T13:03:42.176Z,8.60
2019-04-11T13:06:20.734Z,8.60
2019-04-11T13:09:08.190Z,8.90
2019-04-11T13:11:39.482Z,9.00
2019-04-11T13:14:13.424Z,8.60
2019-04-11T13:16:45.205Z,8.70
2019-04-11T13:19:26.043Z,8.70
2019-04-11T13:21:57.138Z,8.80
2019-04-11T13:24:43.313Z,8.80
2019-04-11T13:27:14.452Z,9.00
2019-04-11T13:29:45.787Z,9.00
2019-04-11T13:32:33.140Z,9.00
2019-04-11T13:35:13.009Z,8.60
2019-04-11T13:38:00.284Z,8.50
2019-04-11T13:40:31.376Z,8.30
2019-04-11T13:43:18.391Z,8.30
2019-04-11T13:45:52.344Z,8.30
2019-04-11T13:48:42.067Z,8.30
2019-04-11T13:51:19.396Z,8.40
2019-04-11T13:54:06.712Z,8.40
2019-04-11T13:56:53.905Z,8.50
2019-04-11T13:59:36.918Z,8.50
2019-04-11T14:02:17.027Z,8.60
2019-04-11T14:04:47.825Z,8.80
2019-04-11T14:07:18.467Z,8.70
2019-04-11T14:09:49.546Z,8.80
2019-04-11T14:12:19.138Z,8.90
2019-04-11T14:14:51.863Z,9.00
2019-04-11T14:17:29.003Z,8.90
2019-04-11T14:20:12.482Z,8.80
2019-04-11T14:22:59.196Z,8.80
2019-04-11T14:25:30.288Z,9.00
2019-04-11T14:28:10.434Z,8.80
2019-04-11T14:30:53.581Z,8.80
2019-04-11T14:33:27.179Z,8.60
2019-04-11T14:35:57.796Z,8.60
2019-04-11T14:38:32.054Z,8.60
2019-04-11T14:41:02.151Z,8.50
2019-04-11T14:43:36.044Z,8.30
2019-04-11T14:46:13.074Z,8.20
2019-04-11T14:48:44.178Z,8.10
2019-04-11T14:51:23.733Z,8.00
2019-04-11T14:53:57.101Z,7.90
2019-04-11T14:56:28.160Z,7.80
2019-04-11T14:59:15.156Z,7.80
2019-04-11T15:01:52.392Z,7.70
2019-04-11T15:04:43.718Z,7.60
2019-04-11T15:07:15.475Z,7.60
2019-04-11T15:09:56.170Z,7.70
2019-04-11T15:12:39.038Z,7.50
2019-04-11T15:15:10.793Z,7.70
2019-04-11T15:17:41.865Z,7.60
2019-04-11T15:20:13.286Z,7.60
2019-04-11T15:22:53.547Z,7.70
2019-04-11T15:25:40.830Z,7.70
2019-04-11T15:28:15.667Z,7.50
2019-04-11T15:30:49.681Z,7.40
2019-04-11T15:33:35.855Z,7.40
2019-04-11T15:36:09.955Z,7.30
2019-04-11T15:38:41.037Z,7.30
2019-04-11T15:41:11.790Z,7.40
2019-04-11T15:43:49.856Z,7.40
2019-04-11T15:46:21.025Z,7.50
2019-04-11T15:49:20.054Z,7.40
2019-04-11T15:51:42.521Z,7.30
2019-04-11T15:54:13.518Z,7.40
2019-04-11T15:56:55.130Z,7.30
2019-04-11T15:59:38.547Z,7.30
2019-04-11T16:02:26.317Z,7.20
2019-04-11T16:05:02.021Z,7.30
2019-04-11T16:07:49.898Z,7.50
2019-04-11T16:10:20.995Z,7.60
2019-04-11T16:13:01.117Z,7.80
2019-04-11T16:15:38.211Z,8.00
2019-04-11T16:18:24.528Z,8.10
2019-04-11T16:21:02.001Z,8.20
2019-04-11T16:23:42.215Z,8.00
2019-04-11T16:26:13.405Z,7.90
2019-04-11T16:28:59.584Z,7.70
2019-04-11T16:31:30.805Z,7.60
2019-04-11T16:34:21.111Z,7.50
2019-04-11T16:36:51.697Z,7.70
2019-04-11T16:39:39.145Z,7.60
2019-04-11T16:42:09.445Z,7.70
2019-04-11T16:44:43.364Z,7.70
2019-04-11T16:47:30.621Z,7.70
2019-04-11T16:50:00.162Z,7.70
2019-04-11T16:52:30.998Z,7.50
2019-04-11T16:55:00.555Z,7.40
2019-04-11T16:57:31.421Z,7.30
2019-04-11T17:00:00.860Z,7.20
2019-04-11T17:02:30.457Z,7.20
2019-04-11T17:04:59.967Z,7.20
2019-04-11T17:07:31.136Z,7.30
2019-04-11T17:10:02.283Z,7.30
2019-04-11T17:12:32.494Z,7.20
2019-04-11T17:15:01.953Z,7.10
2019-04-11T17:17:33.833Z,7.10
2019-04-11T17:20:06.419Z,7.00
2019-04-11T17:22:36.144Z,6.90
2019-04-11T17:25:06.642Z,6.90
2019-04-11T17:27:36.181Z,6.80
2019-04-11T17:30:07.638Z,6.80
2019-04-11T17:32:55.351Z,6.80
2019-04-11T17:35:25.537Z,6.70
2019-04-11T17:37:55.310Z,6.70
2019-04-11T17:40:25.335Z,6.70
2019-04-11T17:42:55.587Z,6.70
2019-04-11T17:45:25.833Z,6.60
2019-04-11T17:47:57.286Z,6.60
2019-04-11T17:50:26.816Z,6.60
2019-04-11T17:52:56.385Z,6.60
2019-04-11T17:55:27.466Z,6.50
2019-04-11T17:57:57.668Z,6.40
2019-04-11T18:00:31.793Z,6.30
2019-04-11T18:03:01.283Z,6.40
2019-04-11T18:05:30.975Z,6.30
2019-04-11T18:08:02.815Z,6.30
2019-04-11T18:10:32.405Z,6.20
2019-04-11T18:13:05.797Z,6.20
2019-04-11T18:15:35.282Z,6.30
2019-04-11T18:18:06.472Z,6.30
2019-04-11T18:20:37.070Z,6.20
2019-04-11T18:23:08.937Z,6.10
2019-04-11T18:25:38.437Z,6.10
2019-04-11T18:28:07.974Z,6.00
2019-04-11T18:30:39.543Z,6.10
2019-04-11T18:33:09.215Z,6.00
2019-04-11T18:35:38.994Z,6.00
2019-04-11T18:38:11.665Z,6.00
2019-04-11T18:40:40.916Z,6.10
2019-04-11T18:43:10.585Z,6.10
2019-04-11T18:45:40.211Z,6.10
2019-04-11T18:48:09.958Z,6.00
2019-04-11T18:50:40.513Z,6.00
2019-04-11T18:53:12.062Z,5.90
2019-04-11T18:55:41.732Z,5.90
2019-04-11T18:58:12.455Z,6.00
2019-04-11T19:00:43.763Z,5.90
2019-04-11T19:03:14.427Z,5.80
2019-04-11T19:05:44.081Z,5.80
2019-04-11T19:08:15.023Z,5.90
2019-04-11T19:10:45.719Z,5.80
2019-04-11T19:13:16.935Z,5.80
2019-04-11T19:15:48.225Z,5.70
2019-04-11T19:18:22.339Z,5.60
2019-04-11T19:20:51.859Z,5.60
2019-04-11T19:23:22.837Z,5.60
2019-04-11T19:25:52.332Z,5.60
2019-04-11T19:28:24.966Z,5.60
2019-04-11T19:30:53.984Z,5.60
2019-04-11T19:33:24.111Z,5.70
2019-04-11T19:35:55.173Z,5.70
2019-04-11T19:38:29.044Z,5.80
2019-04-11T19:40:58.593Z,5.70
2019-04-11T19:43:28.114Z,5.80
2019-04-11T19:45:58.763Z,5.80
2019-04-11T19:48:31.674Z,5.70
2019-04-11T19:51:03.059Z,5.70
2019-04-11T19:53:34.288Z,5.60
2019-04-11T19:56:15.644Z,5.70
2019-04-11T19:58:48.223Z,5.70
2019-04-11T20:01:17.846Z,5.80
2019-04-11T20:03:47.458Z,5.80
2019-04-11T20:06:16.923Z,5.70
2019-04-11T20:08:47.826Z,5.70
2019-04-11T20:11:17.530Z,5.70
2019-04-11T20:13:47.173Z,5.80
2019-04-11T20:16:17.876Z,5.80
2019-04-11T20:18:51.148Z,5.80
2019-04-11T20:21:19.848Z,5.70
2019-04-11T20:23:51.485Z,5.70
2019-04-11T20:26:21.191Z,5.80
2019-04-11T20:28:51.565Z,5.90
2019-04-11T20:31:23.260Z,5.90
2019-04-11T20:33:52.712Z,5.80
2019-04-11T20:36:32.960Z,5.90
2019-04-11T20:38:56.112Z,5.80
2019-04-11T20:41:25.716Z,5.80
2019-04-11T20:43:56.971Z,5.70
2019-04-11T20:46:28.802Z,5.80
2019-04-11T20:48:57.570Z,5.90
2019-04-11T20:51:27.172Z,5.90
2019-04-11T20:53:56.682Z,5.80
2019-04-11T20:56:26.209Z,5.70
2019-04-11T20:58:58.197Z,5.60
2019-04-11T21:01:27.742Z,5.60
2019-04-11T21:04:00.025Z,5.60
2019-04-11T21:06:31.640Z,5.50
2019-04-11T21:09:02.851Z,5.60
2019-04-11T21:11:36.260Z,5.50
2019-04-11T21:14:03.287Z,5.40
2019-04-11T21:16:32.802Z,5.40
2019-04-11T21:19:02.412Z,5.50
2019-04-11T21:21:32.814Z,5.50
2019-04-11T21:24:02.266Z,5.40
2019-04-11T21:26:31.867Z,5.40
2019-04-11T21:29:01.316Z,5.50
2019-04-11T21:31:31.775Z,5.50
2019-04-11T21:34:02.252Z,5.50
2019-04-11T21:36:32.362Z,5.50
2019-04-11T21:39:07.336Z,5.60
2019-04-11T21:41:37.343Z,5.70
2019-04-11T21:44:07.041Z,5.50
2019-04-11T21:46:38.476Z,5.60
2019-04-11T21:49:08.110Z,5.60
2019-04-11T21:51:41.426Z,5.50
2019-04-11T21:54:09.584Z,5.50
2019-04-11T21:56:39.006Z,5.50
2019-04-11T21:59:08.458Z,5.60
2019-04-11T22:01:41.236Z,5.60
2019-04-11T22:04:10.850Z,5.60
2019-04-11T22:06:40.414Z,5.40
2019-04-11T22:09:10.316Z,5.30
2019-04-11T22:11:39.808Z,5.20
2019-04-11T22:14:11.297Z,5.10
2019-04-11T22:16:44.240Z,5.10
2019-04-11T22:19:14.008Z,5.10
2019-04-11T22:21:44.995Z,5.10
2019-04-11T22:24:13.818Z,5.10
2019-04-11T22:26:43.358Z,5.00
2019-04-11T22:29:12.771Z,5.10
2019-04-11T22:31:42.222Z,5.00
2019-04-11T22:34:13.292Z,5.10
2019-04-11T22:36:42.736Z,5.10
2019-04-11T22:39:13.692Z,5.00
2019-04-11T22:41:43.167Z,5.00
2019-04-11T22:44:12.582Z,4.90
2019-04-11T22:46:42.104Z,4.90
2019-04-11T22:49:11.546Z,4.90
2019-04-11T22:51:43.457Z,4.80
2019-04-11T22:54:13.728Z,4.80
2019-04-11T22:56:44.322Z,4.80
2019-04-11T22:59:14.540Z,5.00
2019-04-11T23:01:46.578Z,4.90
2019-04-11T23:04:17.116Z,4.90
2019-04-11T23:06:47.208Z,4.90
2019-04-11T23:09:19.536Z,4.70
2019-04-11T23:11:49.146Z,4.60
2019-04-11T23:14:18.619Z,4.60
2019-04-11T23:16:48.156Z,4.50
2019-04-11T23:19:18.076Z,4.40
2019-04-11T23:21:47.449Z,4.30
2019-04-11T23:24:16.884Z,4.20
2019-04-11T23:26:46.398Z,4.20
2019-04-11T23:29:16.172Z,4.20
2019-04-11T23:31:46.207Z,4.10
2019-04-11T23:34:15.620Z,4.10
2019-04-11T23:36:45.151Z,4.00
2019-04-11T23:39:16.058Z,4.00
2019-04-11T23:41:49.505Z,4.00
2019-04-11T23:44:18.010Z,4.00
2019-04-11T23:46:51.762Z,4.00
2019-04-11T23:49:18.796Z,3.90
2019-04-11T23:51:48.200Z,3.80
2019-04-11T23:54:22.926Z,3.80
2019-04-11T23:56:48.609Z,3.70
2019-04-11T23:59:18.043Z,3.70
